sensor_id;sensor_type;location;lat;lon;timestamp;P1;durP1;ratioP1;P2;durP2;ratioP2
64061;SDS011;50308;47.438;-1.528;2023-05-14T00:01:26;32.38;;;17.45;;
64061;SDS011;50308;47.438;-1.528;2023-05-14T00:03:52;30.77;;;16.73;;
64061;SDS011;50308;47.438;-1.528;2023-05-14T00:06:17;30.85;;;16.40;;
64061;SDS011;50308;47.438;-1.528;2023-05-14T00:08:43;35.47;;;17.33;;
64061;SDS011;50308;47.438;-1.528;2023-05-14T00:11:09;30.75;;;17.60;;
64061;SDS011;50308;47.438;-1.528;2023-05-14T00:13:35;28.92;;;16.75;;
64061;SDS011;50308;47.438;-1.528;2023-05-14T00:16:00;35.72;;;18.63;;
64061;SDS011;50308;47.438;-1.528;2023-05-14T00:18:26;30.15;;;16.85;;
64061;SDS011;50308;47.438;-1.528;2023-05-14T00:20:52;31.00;;;16.92;;
64061;SDS011;50308;47.438;-1.528;2023-05-14T00:23:21;29.60;;;17.25;;
64061;SDS011;50308;47.438;-1.528;2023-05-14T00:25:47;34.88;;;18.70;;
64061;SDS011;50308;47.438;-1.528;2023-05-14T00:28:13;30.05;;;17.02;;
64061;SDS011;50308;47.438;-1.528;2023-05-14T00:30:39;31.98;;;16.20;;
64061;SDS011;50308;47.438;-1.528;2023-05-14T00:33:05;28.13;;;16.35;;
64061;SDS011;50308;47.438;-1.528;2023-05-14T00:35:31;37.38;;;17.98;;
64061;SDS011;50308;47.438;-1.528;2023-05-14T00:37:59;31.83;;;17.77;;
64061;SDS011;50308;47.438;-1.528;2023-05-14T00:40:25;36.05;;;18.17;;
64061;SDS011;50308;47.438;-1.528;2023-05-14T00:42:52;30.70;;;17.92;;
64061;SDS011;50308;47.438;-1.528;2023-05-14T00:45:18;34.90;;;17.30;;
64061;SDS011;50308;47.438;-1.528;2023-05-14T00:47:43;30.70;;;16.90;;
64061;SDS011;50308;47.438;-1.528;2023-05-14T00:50:09;34.58;;;16.58;;
64061;SDS011;50308;47.438;-1.528;2023-05-14T00:52:36;30.08;;;16.17;;
64061;SDS011;50308;47.438;-1.528;2023-05-14T00:55:03;38.10;;;18.52;;
64061;SDS011;50308;47.438;-1.528;2023-05-14T00:57:30;34.13;;;16.65;;
64061;SDS011;50308;47.438;-1.528;2023-05-14T00:59:56;32.65;;;17.95;;
64061;SDS011;50308;47.438;-1.528;2023-05-14T01:02:22;31.90;;;17.60;;
64061;SDS011;50308;47.438;-1.528;2023-05-14T01:04:48;37.35;;;17.75;;
64061;SDS011;50308;47.438;-1.528;2023-05-14T01:10:20;36.78;;;17.83;;
64061;SDS011;50308;47.438;-1.528;2023-05-14T01:15:42;35.00;;;19.15;;
64061;SDS011;50308;47.438;-1.528;2023-05-14T01:18:10;33.22;;;17.45;;
64061;SDS011;50308;47.438;-1.528;2023-05-14T01:20:39;34.60;;;17.08;;
64061;SDS011;50308;47.438;-1.528;2023-05-14T01:23:05;30.13;;;16.48;;
64061;SDS011;50308;47.438;-1.528;2023-05-14T01:25:31;31.15;;;17.20;;
64061;SDS011;50308;47.438;-1.528;2023-05-14T01:33:15;34.55;;;16.80;;
64061;SDS011;50308;47.438;-1.528;2023-05-14T01:35:43;33.35;;;18.52;;
64061;SDS011;50308;47.438;-1.528;2023-05-14T01:38:10;37.63;;;17.83;;
64061;SDS011;50308;47.438;-1.528;2023-05-14T01:40:37;32.05;;;16.65;;
64061;SDS011;50308;47.438;-1.528;2023-05-14T01:43:04;34.30;;;16.92;;
64061;SDS011;50308;47.438;-1.528;2023-05-14T01:45:30;28.30;;;16.67;;
64061;SDS011;50308;47.438;-1.528;2023-05-14T01:47:58;33.55;;;16.80;;
64061;SDS011;50308;47.438;-1.528;2023-05-14T01:50:24;33.55;;;17.92;;
64061;SDS011;50308;47.438;-1.528;2023-05-14T01:52:50;33.88;;;18.38;;
64061;SDS011;50308;47.438;-1.528;2023-05-14T01:55:20;31.15;;;16.73;;
64061;SDS011;50308;47.438;-1.528;2023-05-14T01:57:47;31.67;;;15.98;;
64061;SDS011;50308;47.438;-1.528;2023-05-14T02:00:13;33.20;;;18.02;;
64061;SDS011;50308;47.438;-1.528;2023-05-14T02:02:39;30.17;;;17.27;;
64061;SDS011;50308;47.438;-1.528;2023-05-14T02:05:05;31.88;;;17.23;;
64061;SDS011;50308;47.438;-1.528;2023-05-14T02:07:31;28.80;;;16.90;;
64061;SDS011;50308;47.438;-1.528;2023-05-14T02:09:56;35.75;;;18.08;;
64061;SDS011;50308;47.438;-1.528;2023-05-14T02:12:22;30.73;;;16.70;;
64061;SDS011;50308;47.438;-1.528;2023-05-14T02:14:48;34.10;;;17.23;;
64061;SDS011;50308;47.438;-1.528;2023-05-14T02:17:13;32.55;;;18.02;;
64061;SDS011;50308;47.438;-1.528;2023-05-14T02:19:41;34.67;;;18.10;;
64061;SDS011;50308;47.438;-1.528;2023-05-14T02:22:07;30.35;;;17.48;;
64061;SDS011;50308;47.438;-1.528;2023-05-14T02:24:33;29.15;;;15.82;;
64061;SDS011;50308;47.438;-1.528;2023-05-14T02:26:59;30.35;;;16.33;;
64061;SDS011;50308;47.438;-1.528;2023-05-14T02:29:25;38.28;;;17.73;;
64061;SDS011;50308;47.438;-1.528;2023-05-14T02:31:51;31.98;;;18.55;;
64061;SDS011;50308;47.438;-1.528;2023-05-14T02:34:17;34.45;;;18.30;;
64061;SDS011;50308;47.438;-1.528;2023-05-14T02:36:43;35.92;;;17.25;;
64061;SDS011;50308;47.438;-1.528;2023-05-14T02:39:08;32.17;;;17.08;;
64061;SDS011;50308;47.438;-1.528;2023-05-14T02:41:34;28.75;;;15.98;;
64061;SDS011;50308;47.438;-1.528;2023-05-14T02:44:00;28.02;;;16.30;;
64061;SDS011;50308;47.438;-1.528;2023-05-14T02:46:25;34.33;;;16.90;;
64061;SDS011;50308;47.438;-1.528;2023-05-14T02:48:51;33.28;;;17.02;;
64061;SDS011;50308;47.438;-1.528;2023-05-14T02:51:18;29.73;;;16.80;;
64061;SDS011;50308;47.438;-1.528;2023-05-14T02:53:45;30.13;;;16.17;;
64061;SDS011;50308;47.438;-1.528;2023-05-14T02:56:10;38.80;;;18.00;;
64061;SDS011;50308;47.438;-1.528;2023-05-14T02:58:36;34.10;;;19.48;;
64061;SDS011;50308;47.438;-1.528;2023-05-14T03:01:02;33.38;;;18.55;;
64061;SDS011;50308;47.438;-1.528;2023-05-14T03:03:28;33.78;;;17.13;;
64061;SDS011;50308;47.438;-1.528;2023-05-14T03:05:54;35.28;;;18.88;;
64061;SDS011;50308;47.438;-1.528;2023-05-14T03:08:20;34.20;;;19.02;;
64061;SDS011;50308;47.438;-1.528;2023-05-14T03:10:46;33.35;;;17.63;;
64061;SDS011;50308;47.438;-1.528;2023-05-14T03:13:11;36.70;;;19.20;;
64061;SDS011;50308;47.438;-1.528;2023-05-14T03:15:41;37.78;;;19.08;;
64061;SDS011;50308;47.438;-1.528;2023-05-14T03:18:07;44.65;;;21.05;;
64061;SDS011;50308;47.438;-1.528;2023-05-14T03:20:33;40.13;;;19.75;;
64061;SDS011;50308;47.438;-1.528;2023-05-14T03:22:59;44.13;;;19.33;;
64061;SDS011;50308;47.438;-1.528;2023-05-14T03:25:24;39.55;;;18.98;;
64061;SDS011;50308;47.438;-1.528;2023-05-14T03:27:50;40.40;;;19.65;;
64061;SDS011;50308;47.438;-1.528;2023-05-14T03:30:16;41.67;;;18.48;;
64061;SDS011;50308;47.438;-1.528;2023-05-14T03:32:42;41.28;;;18.92;;
64061;SDS011;50308;47.438;-1.528;2023-05-14T03:35:08;39.97;;;19.35;;
64061;SDS011;50308;47.438;-1.528;2023-05-14T03:37:33;40.72;;;20.27;;
64061;SDS011;50308;47.438;-1.528;2023-05-14T03:39:59;45.17;;;20.25;;
64061;SDS011;50308;47.438;-1.528;2023-05-14T03:42:25;41.97;;;19.85;;
64061;SDS011;50308;47.438;-1.528;2023-05-14T03:44:51;42.70;;;19.77;;
64061;SDS011;50308;47.438;-1.528;2023-05-14T03:47:16;40.97;;;19.45;;
64061;SDS011;50308;47.438;-1.528;2023-05-14T03:49:42;47.83;;;20.33;;
64061;SDS011;50308;47.438;-1.528;2023-05-14T03:52:08;43.53;;;19.83;;
64061;SDS011;50308;47.438;-1.528;2023-05-14T03:54:33;37.45;;;19.10;;
64061;SDS011;50308;47.438;-1.528;2023-05-14T03:56:59;41.15;;;20.50;;
64061;SDS011;50308;47.438;-1.528;2023-05-14T03:59:26;42.05;;;20.42;;
64061;SDS011;50308;47.438;-1.528;2023-05-14T04:01:51;40.25;;;19.13;;
64061;SDS011;50308;47.438;-1.528;2023-05-14T04:04:17;41.90;;;20.27;;
64061;SDS011;50308;47.438;-1.528;2023-05-14T04:06:42;39.80;;;19.85;;
64061;SDS011;50308;47.438;-1.528;2023-05-14T04:09:09;39.47;;;19.63;;
64061;SDS011;50308;47.438;-1.528;2023-05-14T04:11:35;43.22;;;19.42;;
64061;SDS011;50308;47.438;-1.528;2023-05-14T04:14:01;43.28;;;20.08;;
64061;SDS011;50308;47.438;-1.528;2023-05-14T04:16:26;44.60;;;20.30;;
64061;SDS011;50308;47.438;-1.528;2023-05-14T04:18:52;49.33;;;20.75;;
64061;SDS011;50308;47.438;-1.528;2023-05-14T04:21:18;42.42;;;19.33;;
64061;SDS011;50308;47.438;-1.528;2023-05-14T04:23:43;39.83;;;20.17;;
64061;SDS011;50308;47.438;-1.528;2023-05-14T04:26:09;43.95;;;21.65;;
64061;SDS011;50308;47.438;-1.528;2023-05-14T04:28:35;44.72;;;20.08;;
64061;SDS011;50308;47.438;-1.528;2023-05-14T04:31:00;46.78;;;20.65;;
64061;SDS011;50308;47.438;-1.528;2023-05-14T04:33:26;48.67;;;21.77;;
64061;SDS011;50308;47.438;-1.528;2023-05-14T04:35:52;46.03;;;21.98;;
64061;SDS011;50308;47.438;-1.528;2023-05-14T04:38:18;43.22;;;19.70;;
64061;SDS011;50308;47.438;-1.528;2023-05-14T04:40:43;44.58;;;21.58;;
64061;SDS011;50308;47.438;-1.528;2023-05-14T04:43:09;43.75;;;20.08;;
64061;SDS011;50308;47.438;-1.528;2023-05-14T04:45:35;41.28;;;20.05;;
64061;SDS011;50308;47.438;-1.528;2023-05-14T04:48:01;41.53;;;19.75;;
64061;SDS011;50308;47.438;-1.528;2023-05-14T04:50:28;47.90;;;21.77;;
64061;SDS011;50308;47.438;-1.528;2023-05-14T04:52:53;45.60;;;21.42;;
64061;SDS011;50308;47.438;-1.528;2023-05-14T04:55:20;46.20;;;21.52;;
64061;SDS011;50308;47.438;-1.528;2023-05-14T04:57:46;49.63;;;22.98;;
64061;SDS011;50308;47.438;-1.528;2023-05-14T05:00:11;52.35;;;23.10;;
64061;SDS011;50308;47.438;-1.528;2023-05-14T05:02:38;47.65;;;21.27;;
64061;SDS011;50308;47.438;-1.528;2023-05-14T05:05:03;51.40;;;22.35;;
64061;SDS011;50308;47.438;-1.528;2023-05-14T05:07:29;43.33;;;20.65;;
64061;SDS011;50308;47.438;-1.528;2023-05-14T05:09:55;49.60;;;22.33;;
64061;SDS011;50308;47.438;-1.528;2023-05-14T05:12:21;47.78;;;20.67;;
64061;SDS011;50308;47.438;-1.528;2023-05-14T05:14:47;48.40;;;22.08;;
64061;SDS011;50308;47.438;-1.528;2023-05-14T05:17:13;55.38;;;22.67;;
64061;SDS011;50308;47.438;-1.528;2023-05-14T05:19:38;50.88;;;23.20;;
64061;SDS011;50308;47.438;-1.528;2023-05-14T05:22:04;46.83;;;20.30;;
64061;SDS011;50308;47.438;-1.528;2023-05-14T05:24:30;49.85;;;22.30;;
64061;SDS011;50308;47.438;-1.528;2023-05-14T05:26:55;53.47;;;24.40;;
64061;SDS011;50308;47.438;-1.528;2023-05-14T05:29:21;53.92;;;22.77;;
64061;SDS011;50308;47.438;-1.528;2023-05-14T05:31:47;55.42;;;22.98;;
64061;SDS011;50308;47.438;-1.528;2023-05-14T05:34:13;51.30;;;23.85;;
64061;SDS011;50308;47.438;-1.528;2023-05-14T05:36:39;45.67;;;22.08;;
64061;SDS011;50308;47.438;-1.528;2023-05-14T05:39:05;54.28;;;23.52;;
64061;SDS011;50308;47.438;-1.528;2023-05-14T05:41:30;56.53;;;23.67;;
64061;SDS011;50308;47.438;-1.528;2023-05-14T05:43:56;55.58;;;22.67;;
64061;SDS011;50308;47.438;-1.528;2023-05-14T05:46:22;57.83;;;25.53;;
64061;SDS011;50308;47.438;-1.528;2023-05-14T05:48:47;50.78;;;22.65;;
64061;SDS011;50308;47.438;-1.528;2023-05-14T05:51:13;52.88;;;23.77;;
64061;SDS011;50308;47.438;-1.528;2023-05-14T05:53:39;54.65;;;21.67;;
64061;SDS011;50308;47.438;-1.528;2023-05-14T05:56:05;55.00;;;22.75;;
64061;SDS011;50308;47.438;-1.528;2023-05-14T05:58:31;52.58;;;25.33;;
64061;SDS011;50308;47.438;-1.528;2023-05-14T06:00:57;56.45;;;24.55;;
64061;SDS011;50308;47.438;-1.528;2023-05-14T06:03:23;53.53;;;24.83;;
64061;SDS011;50308;47.438;-1.528;2023-05-14T06:05:49;61.15;;;24.88;;
64061;SDS011;50308;47.438;-1.528;2023-05-14T06:08:16;58.38;;;24.55;;
64061;SDS011;50308;47.438;-1.528;2023-05-14T06:10:42;62.78;;;23.92;;
64061;SDS011;50308;47.438;-1.528;2023-05-14T06:13:08;52.40;;;22.35;;
64061;SDS011;50308;47.438;-1.528;2023-05-14T06:15:33;51.75;;;23.00;;
64061;SDS011;50308;47.438;-1.528;2023-05-14T06:17:59;54.75;;;24.40;;
64061;SDS011;50308;47.438;-1.528;2023-05-14T06:20:25;54.20;;;23.73;;
64061;SDS011;50308;47.438;-1.528;2023-05-14T06:22:50;56.15;;;24.17;;
64061;SDS011;50308;47.438;-1.528;2023-05-14T06:25:16;56.95;;;23.67;;
64061;SDS011;50308;47.438;-1.528;2023-05-14T06:27:42;58.83;;;23.92;;
64061;SDS011;50308;47.438;-1.528;2023-05-14T06:30:08;60.75;;;25.95;;
64061;SDS011;50308;47.438;-1.528;2023-05-14T06:32:35;60.35;;;24.45;;
64061;SDS011;50308;47.438;-1.528;2023-05-14T06:35:01;58.28;;;24.42;;
64061;SDS011;50308;47.438;-1.528;2023-05-14T06:37:27;53.95;;;23.63;;
64061;SDS011;50308;47.438;-1.528;2023-05-14T06:39:52;53.85;;;22.45;;
64061;SDS011;50308;47.438;-1.528;2023-05-14T06:42:18;61.33;;;25.63;;
64061;SDS011;50308;47.438;-1.528;2023-05-14T06:44:44;63.08;;;24.58;;
64061;SDS011;50308;47.438;-1.528;2023-05-14T06:47:10;65.72;;;26.55;;
64061;SDS011;50308;47.438;-1.528;2023-05-14T06:49:35;58.92;;;24.45;;
64061;SDS011;50308;47.438;-1.528;2023-05-14T06:52:01;65.00;;;26.58;;
64061;SDS011;50308;47.438;-1.528;2023-05-14T06:54:27;66.75;;;25.70;;
64061;SDS011;50308;47.438;-1.528;2023-05-14T06:56:53;60.05;;;25.88;;
64061;SDS011;50308;47.438;-1.528;2023-05-14T06:59:19;63.67;;;26.15;;
64061;SDS011;50308;47.438;-1.528;2023-05-14T07:01:45;57.17;;;25.35;;
64061;SDS011;50308;47.438;-1.528;2023-05-14T07:04:10;63.17;;;26.42;;
64061;SDS011;50308;47.438;-1.528;2023-05-14T07:06:36;65.80;;;26.20;;
64061;SDS011;50308;47.438;-1.528;2023-05-14T07:09:02;56.58;;;24.65;;
64061;SDS011;50308;47.438;-1.528;2023-05-14T07:11:28;63.55;;;27.30;;
64061;SDS011;50308;47.438;-1.528;2023-05-14T07:13:54;64.13;;;24.95;;
64061;SDS011;50308;47.438;-1.528;2023-05-14T07:16:19;65.57;;;25.27;;
64061;SDS011;50308;47.438;-1.528;2023-05-14T07:18:45;59.65;;;25.75;;
64061;SDS011;50308;47.438;-1.528;2023-05-14T07:21:11;55.67;;;24.35;;
64061;SDS011;50308;47.438;-1.528;2023-05-14T07:23:36;63.13;;;26.85;;
64061;SDS011;50308;47.438;-1.528;2023-05-14T07:26:03;62.72;;;27.33;;
64061;SDS011;50308;47.438;-1.528;2023-05-14T07:28:29;64.95;;;25.38;;
64061;SDS011;50308;47.438;-1.528;2023-05-14T07:30:55;63.08;;;25.30;;
64061;SDS011;50308;47.438;-1.528;2023-05-14T07:33:21;62.58;;;25.75;;
64061;SDS011;50308;47.438;-1.528;2023-05-14T07:35:47;62.63;;;27.00;;
64061;SDS011;50308;47.438;-1.528;2023-05-14T07:38:13;63.67;;;26.88;;
64061;SDS011;50308;47.438;-1.528;2023-05-14T07:40:39;61.28;;;25.67;;
64061;SDS011;50308;47.438;-1.528;2023-05-14T07:43:05;60.70;;;25.35;;
64061;SDS011;50308;47.438;-1.528;2023-05-14T07:45:31;60.08;;;25.38;;
64061;SDS011;50308;47.438;-1.528;2023-05-14T07:47:56;63.15;;;25.98;;
64061;SDS011;50308;47.438;-1.528;2023-05-14T07:50:22;58.47;;;25.25;;
64061;SDS011;50308;47.438;-1.528;2023-05-14T07:52:48;59.00;;;26.05;;
64061;SDS011;50308;47.438;-1.528;2023-05-14T07:55:13;61.25;;;26.75;;
64061;SDS011;50308;47.438;-1.528;2023-05-14T07:57:39;60.83;;;28.50;;
64061;SDS011;50308;47.438;-1.528;2023-05-14T08:00:05;62.15;;;27.52;;
64061;SDS011;50308;47.438;-1.528;2023-05-14T08:02:34;63.13;;;24.73;;
64061;SDS011;50308;47.438;-1.528;2023-05-14T08:05:00;56.85;;;24.85;;
64061;SDS011;50308;47.438;-1.528;2023-05-14T08:07:26;51.92;;;24.70;;
64061;SDS011;50308;47.438;-1.528;2023-05-14T08:09:54;58.47;;;26.58;;
64061;SDS011;50308;47.438;-1.528;2023-05-14T08:12:20;67.00;;;25.35;;
64061;SDS011;50308;47.438;-1.528;2023-05-14T08:14:45;56.95;;;25.30;;
64061;SDS011;50308;47.438;-1.528;2023-05-14T08:17:11;54.45;;;22.83;;
64061;SDS011;50308;47.438;-1.528;2023-05-14T08:19:37;57.13;;;26.63;;
64061;SDS011;50308;47.438;-1.528;2023-05-14T08:22:03;49.25;;;22.70;;
64061;SDS011;50308;47.438;-1.528;2023-05-14T08:24:29;54.70;;;23.17;;
64061;SDS011;50308;47.438;-1.528;2023-05-14T08:26:55;52.85;;;24.27;;
64061;SDS011;50308;47.438;-1.528;2023-05-14T08:29:20;50.10;;;23.10;;
64061;SDS011;50308;47.438;-1.528;2023-05-14T08:31:47;62.45;;;25.25;;
64061;SDS011;50308;47.438;-1.528;2023-05-14T08:34:13;60.72;;;25.92;;
64061;SDS011;50308;47.438;-1.528;2023-05-14T08:36:39;56.05;;;24.88;;
64061;SDS011;50308;47.438;-1.528;2023-05-14T08:39:05;50.40;;;22.02;;
64061;SDS011;50308;47.438;-1.528;2023-05-14T08:41:34;59.90;;;26.27;;
64061;SDS011;50308;47.438;-1.528;2023-05-14T08:46:59;47.50;;;21.80;;
64061;SDS011;50308;47.438;-1.528;2023-05-14T08:49:41;51.92;;;24.10;;
64061;SDS011;50308;47.438;-1.528;2023-05-14T08:52:07;54.63;;;27.17;;
64061;SDS011;50308;47.438;-1.528;2023-05-14T08:54:34;60.10;;;27.40;;
64061;SDS011;50308;47.438;-1.528;2023-05-14T08:57:00;59.40;;;27.95;;
64061;SDS011;50308;47.438;-1.528;2023-05-14T08:59:28;73.38;;;34.85;;
64061;SDS011;50308;47.438;-1.528;2023-05-14T09:01:54;73.10;;;34.75;;
64061;SDS011;50308;47.438;-1.528;2023-05-14T09:04:22;80.35;;;39.33;;
64061;SDS011;50308;47.438;-1.528;2023-05-14T09:06:50;77.10;;;37.38;;
64061;SDS011;50308;47.438;-1.528;2023-05-14T09:09:17;70.55;;;32.58;;
64061;SDS011;50308;47.438;-1.528;2023-05-14T09:11:46;55.80;;;30.45;;
64061;SDS011;50308;47.438;-1.528;2023-05-14T09:14:13;63.40;;;32.00;;
64061;SDS011;50308;47.438;-1.528;2023-05-14T09:16:40;72.30;;;33.03;;
64061;SDS011;50308;47.438;-1.528;2023-05-14T09:19:08;73.25;;;32.03;;
64061;SDS011;50308;47.438;-1.528;2023-05-14T09:21:34;58.13;;;29.77;;
64061;SDS011;50308;47.438;-1.528;2023-05-14T09:24:01;56.33;;;30.10;;
64061;SDS011;50308;47.438;-1.528;2023-05-14T09:26:27;54.67;;;28.80;;
64061;SDS011;50308;47.438;-1.528;2023-05-14T09:28:57;59.63;;;28.73;;
64061;SDS011;50308;47.438;-1.528;2023-05-14T09:31:27;53.80;;;26.10;;
64061;SDS011;50308;47.438;-1.528;2023-05-14T09:33:54;51.20;;;25.38;;
64061;SDS011;50308;47.438;-1.528;2023-05-14T09:36:20;51.15;;;24.13;;
64061;SDS011;50308;47.438;-1.528;2023-05-14T09:38:45;52.75;;;24.58;;
64061;SDS011;50308;47.438;-1.528;2023-05-14T09:41:11;50.92;;;22.88;;
64061;SDS011;50308;47.438;-1.528;2023-05-14T09:43:37;50.00;;;23.63;;
64061;SDS011;50308;47.438;-1.528;2023-05-14T09:46:02;52.17;;;24.02;;
64061;SDS011;50308;47.438;-1.528;2023-05-14T09:48:28;46.90;;;21.67;;
64061;SDS011;50308;47.438;-1.528;2023-05-14T09:50:54;49.53;;;24.05;;
64061;SDS011;50308;47.438;-1.528;2023-05-14T09:53:20;50.67;;;23.38;;
64061;SDS011;50308;47.438;-1.528;2023-05-14T09:55:46;44.33;;;22.48;;
64061;SDS011;50308;47.438;-1.528;2023-05-14T09:58:13;47.47;;;22.40;;
64061;SDS011;50308;47.438;-1.528;2023-05-14T10:00:39;50.80;;;22.63;;
64061;SDS011;50308;47.438;-1.528;2023-05-14T10:03:08;48.67;;;22.58;;
64061;SDS011;50308;47.438;-1.528;2023-05-14T10:05:37;47.00;;;22.10;;
64061;SDS011;50308;47.438;-1.528;2023-05-14T10:08:12;44.75;;;23.13;;
64061;SDS011;50308;47.438;-1.528;2023-05-14T10:10:43;43.97;;;22.05;;
64061;SDS011;50308;47.438;-1.528;2023-05-14T10:13:12;49.55;;;22.52;;
64061;SDS011;50308;47.438;-1.528;2023-05-14T10:15:41;46.38;;;23.45;;
64061;SDS011;50308;47.438;-1.528;2023-05-14T10:18:11;45.40;;;21.70;;
64061;SDS011;50308;47.438;-1.528;2023-05-14T10:20:41;50.78;;;23.23;;
64061;SDS011;50308;47.438;-1.528;2023-05-14T10:23:08;50.65;;;23.70;;
64061;SDS011;50308;47.438;-1.528;2023-05-14T10:25:34;46.58;;;23.05;;
64061;SDS011;50308;47.438;-1.528;2023-05-14T10:28:01;44.55;;;22.08;;
64061;SDS011;50308;47.438;-1.528;2023-05-14T10:30:28;46.47;;;23.65;;
64061;SDS011;50308;47.438;-1.528;2023-05-14T10:33:06;48.25;;;21.23;;
64061;SDS011;50308;47.438;-1.528;2023-05-14T10:38:34;48.67;;;20.98;;
64061;SDS011;50308;47.438;-1.528;2023-05-14T10:41:01;40.22;;;19.88;;
64061;SDS011;50308;47.438;-1.528;2023-05-14T10:43:29;44.30;;;20.77;;
64061;SDS011;50308;47.438;-1.528;2023-05-14T10:45:58;46.58;;;22.85;;
64061;SDS011;50308;47.438;-1.528;2023-05-14T10:48:25;42.47;;;22.08;;
64061;SDS011;50308;47.438;-1.528;2023-05-14T10:50:51;36.20;;;18.85;;
64061;SDS011;50308;47.438;-1.528;2023-05-14T10:53:17;38.58;;;19.48;;
64061;SDS011;50308;47.438;-1.528;2023-05-14T10:55:44;43.95;;;20.38;;
64061;SDS011;50308;47.438;-1.528;2023-05-14T10:58:10;46.13;;;22.15;;
64061;SDS011;50308;47.438;-1.528;2023-05-14T11:00:36;40.78;;;21.65;;
64061;SDS011;50308;47.438;-1.528;2023-05-14T11:03:03;41.60;;;22.20;;
64061;SDS011;50308;47.438;-1.528;2023-05-14T11:05:30;47.60;;;21.60;;
64061;SDS011;50308;47.438;-1.528;2023-05-14T11:07:56;44.65;;;22.38;;
64061;SDS011;50308;47.438;-1.528;2023-05-14T11:10:23;43.13;;;21.50;;
64061;SDS011;50308;47.438;-1.528;2023-05-14T11:12:55;44.30;;;21.45;;
64061;SDS011;50308;47.438;-1.528;2023-05-14T11:15:23;43.85;;;21.63;;
64061;SDS011;50308;47.438;-1.528;2023-05-14T11:17:50;42.20;;;21.55;;
64061;SDS011;50308;47.438;-1.528;2023-05-14T11:20:17;43.30;;;21.50;;
64061;SDS011;50308;47.438;-1.528;2023-05-14T11:22:44;45.22;;;22.17;;
64061;SDS011;50308;47.438;-1.528;2023-05-14T11:25:11;46.63;;;23.02;;
64061;SDS011;50308;47.438;-1.528;2023-05-14T11:27:38;46.17;;;23.95;;
64061;SDS011;50308;47.438;-1.528;2023-05-14T11:30:18;42.08;;;22.00;;
64061;SDS011;50308;47.438;-1.528;2023-05-14T11:32:44;49.30;;;23.42;;
64061;SDS011;50308;47.438;-1.528;2023-05-14T11:35:11;46.03;;;22.30;;
64061;SDS011;50308;47.438;-1.528;2023-05-14T11:37:38;42.33;;;21.20;;
64061;SDS011;50308;47.438;-1.528;2023-05-14T11:40:05;47.50;;;25.35;;
64061;SDS011;50308;47.438;-1.528;2023-05-14T11:42:33;45.33;;;22.80;;
64061;SDS011;50308;47.438;-1.528;2023-05-14T11:45:01;44.50;;;23.08;;
64061;SDS011;50308;47.438;-1.528;2023-05-14T11:47:27;43.22;;;21.92;;
64061;SDS011;50308;47.438;-1.528;2023-05-14T11:49:54;49.78;;;22.77;;
64061;SDS011;50308;47.438;-1.528;2023-05-14T11:52:20;44.50;;;21.77;;
64061;SDS011;50308;47.438;-1.528;2023-05-14T11:54:46;42.42;;;20.95;;
64061;SDS011;50308;47.438;-1.528;2023-05-14T11:57:22;45.58;;;22.38;;
64061;SDS011;50308;47.438;-1.528;2023-05-14T11:59:48;44.75;;;21.40;;
64061;SDS011;50308;47.438;-1.528;2023-05-14T12:02:20;47.22;;;21.98;;
64061;SDS011;50308;47.438;-1.528;2023-05-14T12:04:50;39.50;;;18.92;;
64061;SDS011;50308;47.438;-1.528;2023-05-14T12:07:16;42.35;;;21.63;;
64061;SDS011;50308;47.438;-1.528;2023-05-14T12:09:44;46.38;;;20.88;;
64061;SDS011;50308;47.438;-1.528;2023-05-14T12:12:13;37.20;;;20.80;;
64061;SDS011;50308;47.438;-1.528;2023-05-14T12:14:42;43.15;;;21.60;;
64061;SDS011;50308;47.438;-1.528;2023-05-14T12:17:16;46.08;;;20.90;;
64061;SDS011;50308;47.438;-1.528;2023-05-14T12:19:43;45.20;;;22.40;;
64061;SDS011;50308;47.438;-1.528;2023-05-14T12:22:10;43.22;;;20.05;;
64061;SDS011;50308;47.438;-1.528;2023-05-14T12:24:37;40.30;;;21.75;;
64061;SDS011;50308;47.438;-1.528;2023-05-14T12:27:03;44.83;;;22.48;;
64061;SDS011;50308;47.438;-1.528;2023-05-14T12:29:33;42.35;;;20.42;;
64061;SDS011;50308;47.438;-1.528;2023-05-14T12:32:01;39.85;;;21.13;;
64061;SDS011;50308;47.438;-1.528;2023-05-14T12:34:28;41.55;;;20.45;;
64061;SDS011;50308;47.438;-1.528;2023-05-14T12:36:54;41.70;;;20.73;;
64061;SDS011;50308;47.438;-1.528;2023-05-14T12:39:20;45.35;;;21.23;;
64061;SDS011;50308;47.438;-1.528;2023-05-14T12:41:45;39.38;;;20.55;;
64061;SDS011;50308;47.438;-1.528;2023-05-14T12:44:11;39.75;;;21.13;;
64061;SDS011;50308;47.438;-1.528;2023-05-14T12:46:37;42.33;;;21.17;;
64061;SDS011;50308;47.438;-1.528;2023-05-14T12:49:02;36.80;;;18.85;;
64061;SDS011;50308;47.438;-1.528;2023-05-14T12:51:28;38.20;;;20.15;;
64061;SDS011;50308;47.438;-1.528;2023-05-14T12:53:54;43.00;;;21.52;;
64061;SDS011;50308;47.438;-1.528;2023-05-14T12:56:19;36.90;;;20.00;;
64061;SDS011;50308;47.438;-1.528;2023-05-14T12:58:51;42.90;;;20.40;;
64061;SDS011;50308;47.438;-1.528;2023-05-14T13:01:17;35.70;;;18.83;;
64061;SDS011;50308;47.438;-1.528;2023-05-14T13:03:43;36.88;;;21.15;;
64061;SDS011;50308;47.438;-1.528;2023-05-14T13:06:08;36.30;;;18.75;;
64061;SDS011;50308;47.438;-1.528;2023-05-14T13:08:34;37.35;;;18.60;;
64061;SDS011;50308;47.438;-1.528;2023-05-14T13:11:00;38.72;;;20.02;;
64061;SDS011;50308;47.438;-1.528;2023-05-14T13:13:26;33.40;;;18.23;;
64061;SDS011;50308;47.438;-1.528;2023-05-14T13:15:51;36.42;;;18.40;;
64061;SDS011;50308;47.438;-1.528;2023-05-14T13:18:17;35.50;;;17.58;;
64061;SDS011;50308;47.438;-1.528;2023-05-14T13:20:44;32.38;;;17.88;;
64061;SDS011;50308;47.438;-1.528;2023-05-14T13:23:11;38.40;;;19.13;;
64061;SDS011;50308;47.438;-1.528;2023-05-14T13:25:37;29.20;;;17.95;;
64061;SDS011;50308;47.438;-1.528;2023-05-14T13:28:03;34.22;;;17.23;;
64061;SDS011;50308;47.438;-1.528;2023-05-14T13:30:29;31.17;;;16.55;;
64061;SDS011;50308;47.438;-1.528;2023-05-14T13:32:56;32.78;;;17.75;;
64061;SDS011;50308;47.438;-1.528;2023-05-14T13:35:22;29.35;;;16.63;;
64061;SDS011;50308;47.438;-1.528;2023-05-14T13:37:47;30.23;;;16.90;;
64061;SDS011;50308;47.438;-1.528;2023-05-14T13:40:13;25.42;;;15.75;;
64061;SDS011;50308;47.438;-1.528;2023-05-14T13:42:39;27.90;;;16.08;;
64061;SDS011;50308;47.438;-1.528;2023-05-14T13:45:05;27.52;;;16.23;;
64061;SDS011;50308;47.438;-1.528;2023-05-14T13:47:31;30.15;;;16.83;;
64061;SDS011;50308;47.438;-1.528;2023-05-14T13:49:57;28.05;;;15.23;;
64061;SDS011;50308;47.438;-1.528;2023-05-14T13:52:23;29.85;;;15.95;;
64061;SDS011;50308;47.438;-1.528;2023-05-14T13:54:49;28.10;;;17.05;;
64061;SDS011;50308;47.438;-1.528;2023-05-14T13:57:14;30.73;;;17.02;;
64061;SDS011;50308;47.438;-1.528;2023-05-14T13:59:40;27.65;;;16.15;;
64061;SDS011;50308;47.438;-1.528;2023-05-14T14:02:06;28.73;;;16.88;;
64061;SDS011;50308;47.438;-1.528;2023-05-14T14:04:32;28.08;;;16.02;;
64061;SDS011;50308;47.438;-1.528;2023-05-14T14:06:58;30.73;;;15.57;;
64061;SDS011;50308;47.438;-1.528;2023-05-14T14:09:24;26.05;;;15.75;;
64061;SDS011;50308;47.438;-1.528;2023-05-14T14:11:49;25.42;;;16.33;;
64061;SDS011;50308;47.438;-1.528;2023-05-14T14:14:16;26.52;;;14.85;;
64061;SDS011;50308;47.438;-1.528;2023-05-14T14:16:42;23.42;;;13.85;;
64061;SDS011;50308;47.438;-1.528;2023-05-14T14:19:08;25.38;;;14.55;;
64061;SDS011;50308;47.438;-1.528;2023-05-14T14:21:34;23.08;;;14.85;;